Time;durP1;ratioP1;P1;durP2;ratioP2;P2;SDS_P1;SDS_P2;PMS_P1;PMS_P2;Temp;Humidity;BMP_temperature;BMP_pressure;BME280_temperature;BME280_humidity;BME280_pressure;Samples;Min_cycle;Max_cycle;Signal;HPM_P1;HPM_P2
2021/04/28 00:00:20;;;;;;;41.70;23.15;;;;;;;0.15;64.84;97750.34;1782479;80;21519;-73
2021/04/28 00:02:48;;;;;;;45.10;20.52;;;;;;;0.12;65.79;97747.61;1782461;79;21102;-73
2021/04/28 00:05:15;;;;;;;50.23;23.38;;;;;;;0.12;65.46;97744.95;1782490;80;21249;-73
2021/04/28 00:07:41;;;;;;;51.13;26.07;;;;;;;0.13;66.34;97745.25;1782592;79;21107;-73
2021/04/28 00:10:10;;;;;;;52.23;25.43;;;;;;;0.20;65.22;97736.67;1782638;80;21114;-73
2021/04/28 00:12:36;;;;;;;46.40;21.90;;;;;;;0.27;64.37;97738.77;1782661;79;21181;-73
2021/04/28 00:15:19;;;;;;;42.90;19.27;;;;;;;0.22;67.12;97739.11;1751872;80;21027;-72
2021/04/28 00:17:46;;;;;;;36.73;18.77;;;;;;;0.17;66.69;97735.80;1782628;79;21039;-73
2021/04/28 00:20:13;;;;;;;36.28;17.92;;;;;;;0.11;65.53;97736.66;1788921;80;21051;-72
2021/04/28 00:22:43;;;;;;;35.20;18.85;;;;;;;0.09;66.92;97733.93;1795901;78;21081;-73
2021/04/28 00:25:13;;;;;;;39.90;19.62;;;;;;;0.05;66.10;97736.20;1795922;80;21134;-73
2021/04/28 00:27:40;;;;;;;38.92;17.15;;;;;;;0.04;66.44;97740.42;1796111;78;21082;-73
2021/04/28 00:30:08;;;;;;;38.63;20.72;;;;;;;-0.02;64.46;97737.59;1795977;80;21198;-73
2021/04/28 00:32:35;;;;;;;40.83;21.30;;;;;;;-0.06;65.76;97734.27;1796105;78;21409;-73
2021/04/28 00:35:03;;;;;;;54.25;27.67;;;;;;;-0.08;66.26;97738.48;1795865;80;21054;-73
2021/04/28 00:37:30;;;;;;;51.55;22.67;;;;;;;-0.04;64.68;97735.66;1796156;78;21126;-73
2021/04/28 00:39:57;;;;;;;48.83;24.27;;;;;;;0.08;64.55;97733.61;1795846;80;21145;-73
2021/04/28 00:42:23;;;;;;;57.20;26.25;;;;;;;0.17;65.33;97729.13;1795843;78;21181;-73
2021/04/28 00:44:49;;;;;;;33.08;17.05;;;;;;;0.32;64.45;97725.28;1795848;80;21102;-73
2021/04/28 00:47:16;;;;;;;58.75;26.70;;;;;;;0.43;63.87;97729.89;1795859;78;21562;-73
2021/04/28 00:49:42;;;;;;;18.30;10.50;;;;;;;0.52;63.85;97732.04;1795902;79;21411;-73
2021/04/28 00:52:08;;;;;;;46.65;21.55;;;;;;;0.58;63.78;97732.17;1796014;78;21082;-73
2021/04/28 00:54:34;;;;;;;45.15;21.07;;;;;;;0.53;64.04;97732.33;1795878;80;21200;-73
2021/04/28 00:57:00;;;;;;;45.10;21.95;;;;;;;0.43;63.50;97733.38;1739792;80;21137;-73
2021/04/28 00:59:27;;;;;;;44.33;22.20;;;;;;;0.33;63.86;97730.37;1795905;79;21327;-73
2021/04/28 01:01:54;;;;;;;47.53;21.77;;;;;;;0.27;66.54;97729.95;1795906;78;21399;-73
2021/04/28 01:04:22;;;;;;;42.25;19.98;;;;;;;0.25;64.62;97726.67;1795876;80;21154;-73
2021/04/28 01:06:48;;;;;;;34.95;18.87;;;;;;;0.19;66.83;97728.91;1796061;78;21273;-73
2021/04/28 01:09:14;;;;;;;28.15;17.62;;;;;;;0.12;67.76;97736.95;1765069;80;21094;-73
2021/04/28 01:11:41;;;;;;;41.70;18.85;;;;;;;0.06;67.87;97736.49;1765126;80;21140;-74
2021/04/28 01:14:07;;;;;;;33.18;18.98;;;;;;;0.02;66.51;97737.17;1796080;80;21542;-74
2021/04/28 01:16:34;;;;;;;39.60;20.05;;;;;;;-0.07;68.78;97736.11;1796130;78;21388;-73
2021/04/28 01:19:04;;;;;;;37.00;20.23;;;;;;;-0.14;69.28;97737.20;1796087;80;21210;-73
2021/04/28 01:21:30;;;;;;;30.82;16.30;;;;;;;-0.15;67.89;97736.39;1783534;79;21496;-73
2021/04/28 01:23:57;;;;;;;29.82;17.30;;;;;;;-0.16;67.09;97745.93;1782833;80;21514;-73
2021/04/28 01:26:26;;;;;;;30.97;15.08;;;;;;;-0.30;69.78;97735.89;1782620;79;21103;-73
2021/04/28 01:28:53;;;;;;;43.05;19.77;;;;;;;-0.28;66.42;97735.15;1782766;80;21492;-73
2021/04/28 01:31:20;;;;;;;65.28;31.62;;;;;;;-0.37;67.87;97737.78;1782710;79;22040;-73
2021/04/28 01:33:48;;;;;;;50.20;25.52;;;;;;;-0.45;67.49;97740.19;1782734;80;21527;-73
2021/04/28 01:36:21;;;;;;;37.70;19.98;;;;;;;-0.50;68.11;97735.23;1782765;79;21051;-73
2021/04/28 01:38:54;;;;;;;50.83;20.62;;;;;;;-0.53;67.05;97736.46;1782759;80;21150;-73
2021/04/28 01:41:20;;;;;;;41.25;20.37;;;;;;;-0.59;69.60;97737.34;1781647;79;21133;-73
2021/04/28 01:43:46;;;;;;;45.03;20.48;;;;;;;-0.61;70.58;97737.53;1782715;80;22269;-73
2021/04/28 01:46:12;;;;;;;43.05;19.35;;;;;;;-0.54;70.08;97737.50;1782496;79;21047;-73
2021/04/28 01:48:39;;;;;;;39.53;20.52;;;;;;;-0.49;68.29;97744.33;1782658;80;21178;-73
2021/04/28 01:51:05;;;;;;;85.67;39.58;;;;;;;-0.53;66.61;97728.99;1782650;79;21416;-73
2021/04/28 01:53:31;;;;;;;146.10;63.68;;;;;;;-0.64;67.96;97729.17;1782696;80;21126;-73
2021/04/28 01:55:58;;;;;;;107.83;51.53;;;;;;;-0.75;67.91;97732.53;1782624;79;21456;-73
2021/04/28 01:58:26;;;;;;;80.00;35.38;;;;;;;-0.87;70.08;97728.39;1782592;80;21110;-73
2021/04/28 02:00:52;;;;;;;65.30;27.60;;;;;;;-0.83;68.91;97726.13;1782595;79;21416;-73
2021/04/28 02:03:23;;;;;;;49.42;23.40;;;;;;;-0.83;66.64;97722.95;1782762;80;21527;-73
2021/04/28 02:05:50;;;;;;;40.15;20.02;;;;;;;-0.86;67.78;97724.18;1782651;79;21117;-73
2021/04/28 02:08:16;;;;;;;39.55;19.35;;;;;;;-0.88;71.73;97716.94;1782641;80;21515;-73
2021/04/28 02:10:42;;;;;;;38.95;18.17;;;;;;;-0.79;69.46;97716.68;1782552;79;21440;-73
2021/04/28 02:13:13;;;;;;;34.83;18.73;;;;;;;-0.79;69.70;97715.35;1782760;80;21181;-73
2021/04/28 02:15:40;;;;;;;51.80;24.47;;;;;;;-0.77;67.76;97717.27;1751963;80;21142;-73
2021/04/28 02:18:06;;;;;;;74.32;34.45;;;;;;;-0.80;68.41;97709.73;1782690;80;21205;-73
2021/04/28 02:20:32;;;;;;;88.45;38.92;;;;;;;-0.81;66.88;97714.76;1766671;79;21359;-73
2021/04/28 02:23:00;;;;;;;48.58;22.98;;;;;;;-0.88;66.43;97713.45;1744909;80;21123;-73
2021/04/28 02:25:26;;;;;;;44.23;19.95;;;;;;;-0.91;66.30;97712.56;1713889;82;21207;-73
2021/04/28 02:27:53;;;;;;;44.83;17.50;;;;;;;-0.93;67.09;97714.12;1745013;80;21032;-73
2021/04/28 02:30:22;;;;;;;34.18;18.48;;;;;;;-1.00;70.77;97710.67;1744969;82;21151;-73
2021/04/28 02:32:49;;;;;;;48.02;23.10;;;;;;;-0.98;70.06;97713.93;1745097;80;21314;-73
2021/04/28 02:35:17;;;;;;;60.70;30.23;;;;;;;-0.95;68.43;97714.82;1744885;82;21361;-73
2021/04/28 02:37:43;;;;;;;59.05;25.62;;;;;;;-0.96;70.07;97711.86;1745049;80;21533;-73
2021/04/28 02:40:12;;;;;;;57.05;22.73;;;;;;;-0.93;69.45;97712.78;1744922;82;21112;-73
2021/04/28 02:42:40;;;;;;;39.65;20.15;;;;;;;-0.95;67.18;97712.16;1714417;82;21092;-73
2021/04/28 02:45:07;;;;;;;36.93;16.50;;;;;;;-1.02;69.02;97708.75;1744954;82;21195;-73
2021/04/28 02:47:34;;;;;;;36.42;17.42;;;;;;;-1.06;72.04;97710.19;1744914;80;21072;-73
2021/04/28 02:50:07;;;;;;;35.05;17.57;;;;;;;-1.08;72.60;97717.57;1745102;82;21210;-73
2021/04/28 02:52:33;;;;;;;39.98;17.67;;;;;;;-1.05;72.36;97711.00;1745472;80;21044;-73
2021/04/28 02:54:59;;;;;;;30.97;16.57;;;;;;;-1.09;72.24;97707.15;1745563;82;21215;-73
2021/04/28 02:57:26;;;;;;;38.55;18.15;;;;;;;-1.10;72.31;97710.33;1745572;80;21212;-73
2021/04/28 02:59:52;;;;;;;54.93;23.45;;;;;;;-1.09;69.97;97708.48;1745488;82;21175;-73
2021/04/28 03:02:19;;;;;;;50.73;23.73;;;;;;;-1.18;72.71;97714.05;1745921;80;21131;-73
2021/04/28 03:04:45;;;;;;;54.60;24.50;;;;;;;-1.17;72.42;97711.68;1714946;82;21099;-73
2021/04/28 03:07:15;;;;;;;56.35;25.05;;;;;;;-1.20;72.65;97710.79;1746081;80;21429;-73
2021/04/28 03:09:41;;;;;;;52.43;21.97;;;;;;;-1.17;71.90;97710.36;1714648;82;21222;-73
2021/04/28 03:12:10;;;;;;;56.30;21.93;;;;;;;-1.18;70.36;97710.05;1745852;80;21136;-73
2021/04/28 03:14:36;;;;;;;46.37;23.35;;;;;;;-1.20;69.61;97715.27;1746341;82;21528;-73
2021/04/28 03:17:03;;;;;;;51.20;23.07;;;;;;;-1.26;69.56;97711.62;1745752;80;21563;-73
2021/04/28 03:19:29;;;;;;;32.23;17.30;;;;;;;-1.27;71.34;97711.84;1744960;81;21156;-73
2021/04/28 03:21:55;;;;;;;38.90;19.95;;;;;;;-1.28;69.54;97710.19;1770333;79;22121;-73
2021/04/28 03:24:22;;;;;;;41.88;19.90;;;;;;;-1.37;69.65;97709.61;1773724;80;21560;-73
2021/04/28 03:26:53;;;;;;;41.18;20.25;;;;;;;-1.35;69.54;97716.06;1773730;79;21138;-74
2021/04/28 03:29:19;;;;;;;42.05;20.27;;;;;;;-1.42;71.00;97716.91;1773753;80;21123;-73
2021/04/28 03:31:45;;;;;;;126.87;57.80;;;;;;;-1.44;69.92;97707.00;1750115;80;21416;-73
2021/04/28 03:34:12;;;;;;;140.75;67.53;;;;;;;-1.48;73.80;97714.27;1773895;80;21508;-73
2021/04/28 03:36:38;;;;;;;83.45;31.75;;;;;;;-1.42;73.18;97710.77;1749905;80;21110;-73
2021/04/28 03:39:05;;;;;;;77.65;35.23;;;;;;;-1.42;70.43;97714.25;1773765;80;21582;-73
2021/04/28 03:41:31;;;;;;;69.85;37.60;;;;;;;-1.44;72.54;97714.98;1773701;79;21047;-73
2021/04/28 03:43:57;;;;;;;48.13;30.60;;;;;;;-1.42;71.40;97721.41;1749929;81;21115;-73
2021/04/28 03:46:23;;;;;;;54.67;26.90;;;;;;;-1.40;73.06;97717.20;1773783;79;21930;-73
2021/04/28 03:48:50;;;;;;;50.52;25.23;;;;;;;-1.39;72.44;97724.15;1773819;80;21539;-73
2021/04/28 03:51:16;;;;;;;43.02;21.70;;;;;;;-1.44;72.97;97725.61;1773779;79;21528;-73
2021/04/28 03:53:42;;;;;;;34.30;22.67;;;;;;;-1.42;73.91;97730.70;1750051;81;21170;-73
2021/04/28 03:56:08;;;;;;;35.70;19.27;;;;;;;-1.38;73.92;97731.91;1773736;79;21047;-73
2021/04/28 03:58:34;;;;;;;41.40;23.62;;;;;;;-1.34;72.95;97728.33;1773751;80;21196;-73
2021/04/28 04:01:00;;;;;;;40.63;20.80;;;;;;;-1.35;73.38;97731.50;1773719;79;21298;-73
2021/04/28 04:03:27;;;;;;;41.33;21.62;;;;;;;-1.28;71.58;97726.98;1773767;80;21564;-73
2021/04/28 04:05:53;;;;;;;34.45;18.57;;;;;;;-1.21;73.53;97730.40;1773688;79;21060;-73
2021/04/28 04:08:19;;;;;;;39.08;18.55;;;;;;;-1.10;72.77;97731.60;1773770;81;21134;-73
2021/04/28 04:10:45;;;;;;;29.15;15.98;;;;;;;-1.04;72.93;97732.58;1750069;79;21205;-73
2021/04/28 04:13:12;;;;;;;26.37;15.45;;;;;;;-0.92;70.81;97736.22;1773627;80;21186;-73
2021/04/28 04:15:38;;;;;;;28.52;13.95;;;;;;;-0.84;71.32;97734.63;1750028;81;21111;-73
2021/04/28 04:18:04;;;;;;;23.05;12.93;;;;;;;-0.71;69.88;97731.06;1773685;79;21142;-73
2021/04/28 04:20:30;;;;;;;30.55;16.80;;;;;;;-0.69;69.88;97729.81;1773659;80;21202;-73
2021/04/28 04:22:56;;;;;;;35.00;17.45;;;;;;;-0.71;70.65;97730.55;1773741;79;21244;-73
2021/04/28 04:25:23;;;;;;;39.53;19.00;;;;;;;-0.60;69.81;97735.20;1773712;81;21177;-73
2021/04/28 04:27:49;;;;;;;34.45;21.85;;;;;;;-0.60;71.41;97732.53;1749923;80;21083;-73
2021/04/28 04:30:16;;;;;;;34.58;19.42;;;;;;;-0.46;71.20;97735.91;1773697;81;21161;-73
2021/04/28 04:32:42;;;;;;;42.80;21.82;;;;;;;-0.38;70.84;97734.30;1773750;79;21103;-73
2021/04/28 04:35:10;;;;;;;39.98;20.57;;;;;;;-0.27;70.45;97736.78;1773790;81;21246;-73
2021/04/28 04:37:36;;;;;;;37.48;20.02;;;;;;;-0.21;70.42;97739.91;1773672;79;21162;-73
2021/04/28 04:40:05;;;;;;;42.83;23.57;;;;;;;-0.07;70.16;97741.95;1773735;80;21126;-73
2021/04/28 04:42:31;;;;;;;47.67;24.15;;;;;;;-0.03;70.15;97738.63;1773997;79;21035;-73
2021/04/28 04:44:57;;;;;;;52.78;22.65;;;;;;;0.07;69.97;97734.64;1773944;81;21142;-73
2021/04/28 04:47:23;;;;;;;46.58;24.75;;;;;;;0.13;70.34;97737.25;1773815;79;22078;-73
2021/04/28 04:49:49;;;;;;;42.35;22.48;;;;;;;0.15;70.97;97739.69;1774002;81;21166;-74
2021/04/28 04:52:15;;;;;;;48.35;24.02;;;;;;;0.28;70.32;97736.39;1750021;80;21051;-73
2021/04/28 04:54:42;;;;;;;46.50;22.55;;;;;;;0.37;70.36;97739.58;1773960;81;21586;-73
2021/04/28 04:57:08;;;;;;;44.48;21.30;;;;;;;0.47;70.41;97736.40;1773850;79;21095;-73
2021/04/28 04:59:34;;;;;;;36.98;19.32;;;;;;;0.61;70.00;97742.41;1773854;81;21192;-73
2021/04/28 05:02:00;;;;;;;40.58;21.27;;;;;;;0.76;68.17;97745.48;1773840;79;21710;-73
2021/04/28 05:04:27;;;;;;;43.98;23.00;;;;;;;0.79;68.72;97743.73;1773938;80;21214;-73
2021/04/28 05:06:53;;;;;;;39.75;20.32;;;;;;;0.92;68.51;97744.89;1773838;79;21039;-73
2021/04/28 05:09:21;;;;;;;45.58;21.12;;;;;;;1.09;68.35;97745.08;1774004;81;21540;-73
2021/04/28 05:11:47;;;;;;;43.70;21.23;;;;;;;1.24;68.00;97744.69;1773901;79;21366;-73
2021/04/28 05:14:14;;;;;;;48.13;20.30;;;;;;;1.43;67.70;97738.77;1750058;81;21552;-73
2021/04/28 05:16:40;;;;;;;35.15;18.23;;;;;;;1.60;66.62;97727.20;1773863;79;21151;-73
2021/04/28 05:19:07;;;;;;;32.00;18.35;;;;;;;1.70;66.00;97734.12;1773893;81;21181;-73
2021/04/28 05:21:34;;;;;;;38.67;19.90;;;;;;;1.76;66.41;97735.59;1773749;79;21016;-73
2021/04/28 05:24:02;;;;;;;37.08;18.85;;;;;;;1.86;66.17;97735.31;1773840;80;22022;-73
2021/04/28 05:26:28;;;;;;;40.25;20.68;;;;;;;2.10;66.09;97738.01;1773770;79;21111;-73
2021/04/28 05:28:54;;;;;;;37.10;17.80;;;;;;;2.32;65.62;97734.24;1773892;80;21067;-73
2021/04/28 05:31:21;;;;;;;32.13;18.30;;;;;;;2.49;65.04;97728.47;1773790;79;21150;-74
2021/04/28 05:33:47;;;;;;;32.35;17.20;;;;;;;2.65;64.88;97735.77;1774043;81;21143;-73
2021/04/28 05:36:14;;;;;;;30.55;16.15;;;;;;;2.89;64.67;97730.34;1773906;79;21124;-73
2021/04/28 05:38:40;;;;;;;32.05;16.70;;;;;;;3.09;63.92;97728.89;1773922;81;21154;-73
2021/04/28 05:41:06;;;;;;;37.25;16.30;;;;;;;3.31;63.48;97726.88;1773826;79;21035;-73
2021/04/28 05:43:33;;;;;;;39.90;18.12;;;;;;;3.51;63.41;97729.94;1773825;81;21185;-73
2021/04/28 05:46:02;;;;;;;36.15;19.23;;;;;;;3.70;63.09;97725.16;1750016;79;21035;-73
2021/04/28 05:48:28;;;;;;;42.00;17.73;;;;;;;3.94;62.33;97724.48;1773839;81;21258;-73
2021/04/28 05:50:55;;;;;;;46.80;18.62;;;;;;;4.22;62.19;97721.69;1749983;79;21234;-73
2021/04/28 05:53:21;;;;;;;44.00;18.77;;;;;;;4.44;61.40;97720.91;1773892;80;21095;-73
2021/04/28 05:55:47;;;;;;;25.10;15.18;;;;;;;4.67;60.31;97722.56;1773789;79;21158;-73
2021/04/28 05:58:14;;;;;;;32.75;16.37;;;;;;;4.85;59.73;97718.77;1773829;81;21150;-73
2021/04/28 06:00:40;;;;;;;31.70;17.75;;;;;;;5.07;59.90;97712.86;1773791;81;22021;-73
2021/04/28 06:03:06;;;;;;;36.30;15.98;;;;;;;5.28;59.52;97716.03;1773823;81;21598;-73
2021/04/28 06:05:32;;;;;;;29.57;17.17;;;;;;;5.51;57.03;97716.27;1773832;81;21114;-73
2021/04/28 06:07:58;;;;;;;30.97;15.25;;;;;;;5.76;57.58;97713.55;1773790;79;21114;-72
2021/04/28 06:10:24;;;;;;;26.10;13.65;;;;;;;5.97;54.66;97709.97;1773873;80;21150;-73
2021/04/28 06:12:51;;;;;;;24.82;12.80;;;;;;;6.17;54.47;97716.05;1773846;79;21195;-73
2021/04/28 06:15:18;;;;;;;27.02;12.47;;;;;;;6.42;55.62;97711.38;1773794;81;21158;-73
2021/04/28 06:17:44;;;;;;;28.25;12.70;;;;;;;6.60;54.11;97702.86;1773750;79;21090;-73
2021/04/28 06:20:14;;;;;;;21.12;11.75;;;;;;;6.78;53.97;97700.25;1773958;81;21075;-73
2021/04/28 06:22:42;;;;;;;23.62;13.22;;;;;;;6.91;53.60;97707.83;1780028;79;21110;-73
2021/04/28 06:25:09;;;;;;;21.90;10.68;;;;;;;7.01;51.65;97699.81;1782689;80;21200;-73
2021/04/28 06:27:37;;;;;;;20.35;11.83;;;;;;;7.24;52.05;97692.31;1782579;79;21427;-73
2021/04/28 06:30:05;;;;;;;27.40;11.90;;;;;;;7.47;50.16;97691.02;1782611;80;21079;-73
2021/04/28 06:32:31;;;;;;;24.25;11.55;;;;;;;7.72;50.82;97691.05;1782779;79;21054;-72
2021/04/28 06:34:58;;;;;;;27.27;11.97;;;;;;;8.00;47.95;97691.59;1782648;80;21154;-74
2021/04/28 06:37:24;;;;;;;19.60;10.45;;;;;;;8.23;49.98;97691.03;1782586;79;21202;-72
2021/04/28 06:39:50;;;;;;;20.10;9.53;;;;;;;8.47;49.87;97677.80;1752052;80;21142;-73
2021/04/28 06:42:16;;;;;;;17.85;9.35;;;;;;;8.81;49.79;97671.74;1782523;79;21123;-73
2021/04/28 06:44:43;;;;;;;23.85;10.63;;;;;;;9.15;47.85;97667.80;1751948;80;21142;-73
2021/04/28 06:47:09;;;;;;;19.85;9.23;;;;;;;9.54;46.64;97670.52;1782583;79;21072;-73
2021/04/28 06:49:35;;;;;;;16.82;9.08;;;;;;;9.89;46.65;97667.53;1782595;80;22055;-73
2021/04/28 06:52:01;;;;;;;18.55;9.55;;;;;;;9.99;45.64;97672.05;1782595;79;21432;-73
2021/04/28 06:54:27;;;;;;;18.48;10.28;;;;;;;10.07;46.07;97666.02;1782640;80;21555;-73
2021/04/28 06:56:54;;;;;;;14.93;9.03;;;;;;;10.28;45.54;97663.98;1782618;79;21583;-73
2021/04/28 06:59:21;;;;;;;17.42;9.13;;;;;;;10.55;45.14;97650.42;1782632;80;21146;-73
2021/04/28 07:01:51;;;;;;;12.10;7.60;;;;;;;10.65;43.47;97648.39;1782507;79;21254;-72
2021/04/28 07:04:15;;;;;;;17.02;9.00;;;;;;;10.63;42.95;97653.30;1781973;80;21123;-73
2021/04/28 07:06:42;;;;;;;16.93;8.08;;;;;;;10.96;43.43;97648.84;1782626;79;21027;-73
2021/04/28 07:09:08;;;;;;;16.50;8.23;;;;;;;11.70;41.86;97646.95;1782603;80;21162;-73
2021/04/28 07:11:34;;;;;;;18.95;10.20;;;;;;;12.41;41.22;97643.06;1782652;79;21393;-73
2021/04/28 07:14:00;;;;;;;28.17;12.47;;;;;;;13.09;41.10;97644.16;1782601;80;21250;-73
2021/04/28 07:16:26;;;;;;;22.13;11.00;;;;;;;13.69;38.05;97643.36;1782622;79;21090;-73
2021/04/28 07:18:53;;;;;;;28.57;11.10;;;;;;;14.29;38.95;97644.31;1750550;80;21161;-73
2021/04/28 07:21:20;;;;;;;31.35;11.78;;;;;;;14.56;33.03;97646.63;1784487;79;21288;-73
2021/04/28 07:23:46;;;;;;;15.55;9.00;;;;;;;15.20;36.01;97642.88;1796073;80;21938;-73
2021/04/28 07:26:13;;;;;;;12.65;8.48;;;;;;;15.85;35.79;97641.18;1795889;78;21263;-73
2021/04/28 07:28:39;;;;;;;15.40;9.05;;;;;;;16.06;35.96;97640.20;1795909;80;21105;-73
2021/04/28 07:31:05;;;;;;;42.48;11.45;;;;;;;16.47;35.00;97642.09;1795869;78;21023;-73
2021/04/28 07:33:32;;;;;;;23.45;10.40;;;;;;;16.85;34.34;97635.30;1795925;80;21181;-73
2021/04/28 07:35:58;;;;;;;15.98;9.53;;;;;;;17.33;34.07;97638.94;1765212;78;21117;-73
2021/04/28 07:38:24;;;;;;;13.53;8.75;;;;;;;17.69;33.24;97630.14;1795895;80;21303;-74
2021/04/28 07:40:50;;;;;;;15.50;8.83;;;;;;;17.83;27.84;97632.62;1795870;78;21162;-74
2021/04/28 07:43:17;;;;;;;13.88;8.65;;;;;;;18.30;31.52;97622.73;1795895;80;21129;-74
2021/04/28 07:45:43;;;;;;;20.82;8.40;;;;;;;18.53;30.31;97623.89;1795876;78;21154;-74
2021/04/28 07:48:11;;;;;;;15.72;8.85;;;;;;;19.08;30.09;97622.59;1795938;79;21106;-74
2021/04/28 07:50:38;;;;;;;11.53;8.03;;;;;;;19.56;26.20;97629.15;1796045;80;21156;-74
2021/04/28 07:53:05;;;;;;;13.08;7.20;;;;;;;19.12;28.33;97620.73;1795829;78;21027;-74
2021/04/28 07:55:31;;;;;;;11.70;6.10;;;;;;;19.67;28.03;97622.04;1765032;80;21184;-74
2021/04/28 07:57:58;;;;;;;37.95;7.90;;;;;;;20.27;23.78;97619.37;1764821;80;21101;-74
2021/04/28 08:00:27;;;;;;;11.93;5.92;;;;;;;19.72;26.06;97614.91;1795904;80;21157;-74
2021/04/28 08:02:52;;;;;;;7.12;5.37;;;;;;;20.20;26.70;97618.59;1795890;78;21780;-74
2021/04/28 08:05:19;;;;;;;7.58;6.00;;;;;;;20.65;26.21;97616.05;1795849;80;21153;-74
2021/04/28 08:07:45;;;;;;;14.15;7.08;;;;;;;21.28;26.30;97608.33;1795891;78;21042;-74
2021/04/28 08:10:12;;;;;;;10.15;5.30;;;;;;;21.99;25.63;97614.53;1795838;80;21158;-74
2021/04/28 08:12:38;;;;;;;9.50;5.42;;;;;;;22.66;23.53;97611.66;1795882;78;21097;-74
2021/04/28 08:15:07;;;;;;;9.18;5.28;;;;;;;22.51;22.00;97605.09;1795910;80;21186;-73
2021/04/28 08:17:33;;;;;;;9.93;4.72;;;;;;;22.54;21.27;97603.55;1795979;78;21043;-73
2021/04/28 08:20:00;;;;;;;6.85;4.70;;;;;;;21.72;20.58;97600.61;1796009;79;21157;-73
2021/04/28 08:22:26;;;;;;;8.15;4.15;;;;;;;22.05;21.94;97595.95;1789072;78;21181;-73
2021/04/28 08:24:53;;;;;;;10.30;6.00;;;;;;;21.59;21.60;97585.36;1782672;80;21157;-74
2021/04/28 08:27:19;;;;;;;12.82;5.45;;;;;;;22.41;20.60;97589.73;1752002;80;21243;-74
2021/04/28 08:29:45;;;;;;;14.28;5.65;;;;;;;23.21;21.29;97592.02;1751932;80;21138;-74
2021/04/28 08:32:12;;;;;;;11.18;4.08;;;;;;;24.54;19.13;97588.31;1782455;79;21059;-74
2021/04/28 08:34:38;;;;;;;7.75;4.75;;;;;;;23.91;19.82;97590.78;1782550;80;21161;-74
2021/04/28 08:37:04;;;;;;;10.25;5.55;;;;;;;24.44;19.12;97584.23;1782517;79;21075;-74
2021/04/28 08:39:30;;;;;;;9.33;5.50;;;;;;;25.09;17.44;97585.59;1782648;80;21191;-74
2021/04/28 08:41:56;;;;;;;5.42;3.60;;;;;;;25.34;15.81;97579.61;1782530;79;21209;-74
2021/04/28 08:44:22;;;;;;;7.47;4.22;;;;;;;24.95;16.36;97588.45;1782601;80;21126;-74
2021/04/28 08:46:50;;;;;;;6.47;3.85;;;;;;;24.91;16.69;97579.89;1782506;79;21034;-74
2021/04/28 08:49:16;;;;;;;5.75;4.17;;;;;;;25.69;14.58;97583.75;1782760;80;21526;-74
2021/04/28 08:51:42;;;;;;;8.38;4.65;;;;;;;24.81;15.17;97585.56;1782546;79;21973;-74
2021/04/28 08:54:09;;;;;;;10.25;4.35;;;;;;;25.05;14.62;97583.41;1782559;80;21130;-74
2021/04/28 08:56:35;;;;;;;17.20;4.28;;;;;;;25.22;14.76;97585.50;1782440;79;21034;-74
2021/04/28 08:59:05;;;;;;;20.20;6.62;;;;;;;24.65;16.03;97578.91;1727276;80;21186;-74
2021/04/28 09:01:36;;;;;;;11.97;6.15;;;;;;;24.62;15.44;97571.38;1782544;79;21003;-74
2021/04/28 09:04:23;;;;;;;10.82;5.83;;;;;;;25.60;14.64;97569.64;1782580;80;21103;-74
2021/04/28 09:06:48;;;;;;;16.57;10.82;;;;;;;26.02;13.97;97570.22;1782296;79;21205;-73
2021/04/28 09:09:16;;;;;;;12.00;4.62;;;;;;;26.05;13.96;97572.20;1782513;80;21154;-73
2021/04/28 09:11:51;;;;;;;14.75;4.33;;;;;;;25.24;14.76;97569.27;1782587;79;21075;-73
2021/04/28 09:14:20;;;;;;;5.92;3.87;;;;;;;26.41;14.58;97562.81;1782634;80;21500;-73
2021/04/28 09:17:00;;;;;;;8.55;3.77;;;;;;;26.48;13.96;97557.83;1782484;79;23265;-74
2021/04/28 09:19:40;;;;;;;8.88;4.58;;;;;;;27.04;14.01;97561.03;1782496;80;21177;-75
2021/04/28 09:22:12;;;;;;;8.23;4.33;;;;;;;27.85;13.43;97555.83;1780029;79;21171;-75
2021/04/28 09:24:51;;;;;;;5.92;3.42;;;;;;;28.07;12.83;97547.56;1773723;81;21150;-74
2021/04/28 09:27:34;;;;;;;7.47;4.40;;;;;;;28.56;11.94;97548.47;1773765;79;21099;-74
2021/04/28 09:30:09;;;;;;;8.83;3.85;;;;;;;27.91;13.25;97542.29;1773920;80;21445;-73
2021/04/28 09:32:37;;;;;;;7.10;3.33;;;;;;;27.96;13.34;97532.92;1749904;80;21210;-75
2021/04/28 09:35:16;;;;;;;8.65;4.17;;;;;;;26.75;13.89;97536.59;1774015;81;21524;-75
2021/04/28 09:38:00;;;;;;;8.23;3.60;;;;;;;27.05;13.90;97532.03;1773932;79;21035;-75
2021/04/28 09:40:45;;;;;;;9.73;3.85;;;;;;;28.59;12.52;97525.34;1773979;80;21531;-75
2021/04/28 09:43:11;;;;;;;7.53;3.62;;;;;;;27.19;12.26;97518.91;1773915;81;21421;-74
2021/04/28 09:45:45;;;;;;;5.10;3.70;;;;;;;26.59;13.02;97512.02;1773886;81;21559;-74
2021/04/28 09:48:22;;;;;;;15.90;6.15;;;;;;;28.20;12.68;97517.27;1773904;81;21047;-74
2021/04/28 09:50:49;;;;;;;10.20;3.95;;;;;;;29.74;12.61;97500.66;1773873;79;21102;-74
2021/04/28 09:53:25;;;;;;;5.92;3.70;;;;;;;30.42;11.78;97501.67;1750069;81;21031;-76
2021/04/28 09:56:47;;;;;;;5.45;3.35;;;;;;;30.88;11.51;97503.73;1773834;79;21175;-75
2021/04/28 09:59:13;;;;;;;10.28;4.87;;;;;;;29.99;11.34;97501.68;1773823;81;21091;-74
2021/04/28 10:01:41;;;;;;;4.58;3.45;;;;;;;30.37;10.95;97495.97;1773835;79;21138;-74
2021/04/28 10:04:09;;;;;;;33.83;6.35;;;;;;;28.99;11.63;97495.75;1774136;81;21535;-75
2021/04/28 10:06:49;;;;;;;14.83;7.92;;;;;;;29.31;11.74;97494.80;1773970;79;21385;-75
2021/04/28 10:09:31;;;;;;;11.65;4.30;;;;;;;28.60;11.20;97484.33;1773868;81;21462;-73
2021/04/28 10:11:59;;;;;;;8.25;3.50;;;;;;;28.08;11.63;97480.13;1773681;79;21106;-74
2021/04/28 10:14:27;;;;;;;6.45;3.60;;;;;;;28.05;11.28;97474.79;1773928;81;21071;-74
2021/04/28 10:16:55;;;;;;;;;;;;;;;27.67;11.92;97473.02;1776392;79;21031;-74
2021/04/28 10:19:24;;;;;;;12.78;4.20;;;;;;;26.39;12.23;97472.72;1772622;80;20227;-75
2021/04/28 10:21:52;;;;;;;22.32;5.55;;;;;;;26.35;13.41;97474.69;1774041;79;21190;-75
2021/04/28 10:24:19;;;;;;;6.00;3.70;;;;;;;28.99;11.73;97459.50;1782834;80;21111;-75
2021/04/28 10:26:47;;;;;;;10.00;2.87;;;;;;;27.28;12.52;97460.08;1782861;79;21130;-75
2021/04/28 10:29:18;;;;;;;7.08;5.03;;;;;;;25.12;14.40;97455.33;1782565;80;21079;-75
2021/04/28 10:31:43;;;;;;;14.45;3.92;;;;;;;23.74;15.28;97452.28;1782374;79;21091;-75
2021/04/28 10:34:10;;;;;;;3.98;3.30;;;;;;;22.70;16.45;97453.72;1782632;80;21144;-73
2021/04/28 10:36:36;;;;;;;10.55;4.22;;;;;;;22.05;16.51;97460.78;1782639;79;21161;-74
2021/04/28 10:39:03;;;;;;;8.20;3.20;;;;;;;21.19;17.22;97456.95;1782574;80;21023;-73
2021/04/28 10:41:41;;;;;;;9.05;4.22;;;;;;;19.85;19.48;97458.17;1782943;79;21122;-74
2021/04/28 10:44:38;;;;;;;30.23;5.33;;;;;;;19.03;19.48;97444.92;1782735;80;21475;-72
2021/04/28 10:47:39;;;;;;;17.82;4.20;;;;;;;18.59;20.34;97451.06;1782632;79;21191;-73
2021/04/28 10:53:05;;;;;;;6.75;3.20;;;;;;;17.93;20.98;97446.39;1816837;76;22733;-73
2021/04/28 10:55:44;;;;;;;7.10;5.15;;;;;;;18.40;20.35;97447.33;1755208;80;20980;-73
2021/04/28 10:58:32;;;;;;;5.00;3.25;;;;;;;18.20;21.19;97447.11;1785809;80;21193;-72
2021/04/28 11:01:04;;;;;;;4.60;3.55;;;;;;;17.71;21.28;97445.70;1785860;79;21137;-73
2021/04/28 11:03:41;;;;;;;8.93;3.37;;;;;;;17.68;21.43;97440.84;1785816;80;21087;-73
2021/04/28 11:06:26;;;;;;;8.83;3.30;;;;;;;17.75;21.78;97441.12;1785857;79;21419;-72
2021/04/28 11:09:06;;;;;;;29.00;4.00;;;;;;;17.47;22.34;97434.65;1785829;80;20967;-73
2021/04/28 11:11:41;;;;;;;4.72;3.17;;;;;;;17.43;22.30;97429.60;1785747;79;21197;-73
2021/04/28 11:14:18;;;;;;;8.13;3.30;;;;;;;17.49;21.83;97424.95;1785725;80;21137;-72
2021/04/28 11:16:59;;;;;;;7.67;3.30;;;;;;;17.47;22.58;97425.86;1785820;79;21503;-73
2021/04/28 11:19:33;;;;;;;10.30;3.20;;;;;;;17.53;21.92;97414.70;1785926;80;21550;-72
2021/04/28 11:22:18;;;;;;;7.00;3.65;;;;;;;17.40;22.09;97420.70;1785729;79;21026;-73
2021/04/28 11:25:14;;;;;;;11.78;3.27;;;;;;;17.53;21.62;97420.18;1785783;79;22078;-73
2021/04/28 11:28:02;;;;;;;4.58;2.98;;;;;;;17.20;22.70;97414.95;1785682;79;21039;-72
2021/04/28 11:30:45;;;;;;;21.48;5.08;;;;;;;17.20;22.81;97405.94;1784081;80;21129;-73
2021/04/28 11:33:31;;;;;;;15.15;5.03;;;;;;;17.35;22.79;97409.41;1785764;80;21063;-72